createdAt,value
2018-03-01T00:01:10.940Z,48.69
2018-03-01T00:03:38.475Z,48.19
2018-03-01T00:06:06.058Z,48.06
2018-03-01T00:08:33.600Z,48.69
2018-03-01T00:11:01.172Z,48.64
2018-03-01T00:13:28.722Z,48.42
2018-03-01T00:15:56.293Z,48.03
2018-03-01T00:18:23.827Z,48.77
2018-03-01T00:20:51.364Z,48.61
2018-03-01T00:23:18.916Z,48.32
2018-03-01T00:25:46.439Z,48.61
2018-03-01T00:28:14.090Z,48.81
2018-03-01T00:30:42.399Z,48.29
2018-03-01T00:33:09.975Z,48.86
2018-03-01T00:35:37.532Z,48.20
2018-03-01T00:38:05.096Z,48.66
2018-03-01T00:40:32.637Z,48.58
2018-03-01T00:43:00.181Z,49.51
2018-03-01T00:45:27.778Z,49.24
2018-03-01T00:47:55.310Z,48.96
2018-03-01T00:50:22.867Z,49.23
2018-03-01T00:52:50.407Z,49.00
2018-03-01T00:55:17.969Z,49.39
2018-03-01T00:57:45.496Z,49.51
2018-03-01T01:00:13.060Z,49.56
2018-03-01T01:02:40.600Z,49.00
2018-03-01T01:05:08.122Z,49.45
2018-03-01T01:07:35.703Z,48.92
2018-03-01T01:10:03.267Z,49.63
2018-03-01T01:12:30.831Z,49.69
2018-03-01T01:14:58.363Z,49.16
2018-03-01T01:17:25.980Z,48.49
2018-03-01T01:19:53.521Z,49.12
2018-03-01T01:22:21.055Z,49.86
2018-03-01T01:24:48.657Z,49.65
2018-03-01T01:27:16.186Z,49.38
2018-03-01T01:29:43.749Z,49.57
2018-03-01T01:32:11.279Z,49.28
2018-03-01T01:34:38.867Z,49.80
2018-03-01T01:37:06.409Z,50.01
2018-03-01T01:39:33.979Z,49.21
2018-03-01T01:42:01.548Z,49.91
2018-03-01T01:44:29.089Z,50.45
2018-03-01T01:46:56.669Z,50.05
2018-03-01T01:49:24.191Z,49.47
2018-03-01T01:51:51.754Z,49.64
2018-03-01T01:54:19.369Z,50.52
2018-03-01T01:56:46.936Z,49.79
2018-03-01T01:59:14.457Z,49.99
2018-03-01T02:01:42.610Z,50.10
2018-03-01T02:04:10.168Z,50.60
2018-03-01T02:06:37.708Z,49.69
2018-03-01T02:09:05.274Z,50.15
2018-03-01T02:11:32.817Z,50.73
2018-03-01T02:14:00.386Z,50.59
2018-03-01T02:16:27.907Z,51.10
2018-03-01T02:18:55.488Z,50.25
2018-03-01T02:21:23.019Z,50.72
2018-03-01T02:23:50.598Z,50.87
2018-03-01T02:26:18.123Z,51.39
2018-03-01T02:28:45.679Z,50.91
2018-03-01T02:31:13.253Z,51.45
2018-03-01T02:33:40.786Z,51.26
2018-03-01T02:36:08.405Z,51.02
2018-03-01T02:38:35.950Z,51.10
2018-03-01T02:41:03.523Z,51.00
2018-03-01T02:43:31.095Z,50.79
2018-03-01T02:45:58.637Z,51.30
2018-03-01T02:48:26.215Z,50.80
2018-03-01T02:50:53.799Z,50.79
2018-03-01T02:53:21.376Z,51.22
2018-03-01T02:55:48.912Z,51.29
2018-03-01T02:58:16.528Z,50.76
2018-03-01T03:00:44.189Z,50.37
2018-03-01T03:03:11.712Z,50.67
2018-03-01T03:05:39.264Z,51.21
2018-03-01T03:08:06.804Z,51.15
2018-03-01T03:10:34.368Z,51.24
2018-03-01T03:13:01.920Z,51.20
2018-03-01T03:15:29.477Z,51.34
2018-03-01T03:17:57.005Z,50.69
2018-03-01T03:20:24.606Z,51.29
2018-03-01T03:22:52.173Z,50.90
2018-03-01T03:25:19.706Z,51.04
2018-03-01T03:27:48.063Z,50.75
2018-03-01T03:30:15.614Z,51.23
2018-03-01T03:32:43.177Z,50.57
2018-03-01T03:35:10.712Z,50.91
2018-03-01T03:37:38.282Z,51.40
2018-03-01T03:40:05.849Z,51.04
2018-03-01T03:42:33.427Z,51.40
2018-03-01T03:45:00.951Z,51.28
2018-03-01T03:47:28.472Z,51.12
2018-03-01T03:49:56.049Z,50.72
2018-03-01T03:52:23.607Z,51.11
2018-03-01T03:54:51.175Z,51.47
2018-03-01T03:57:18.717Z,51.29
2018-03-01T03:59:46.312Z,50.68
2018-03-01T04:02:13.841Z,50.66
2018-03-01T04:04:41.376Z,51.30
2018-03-01T04:07:08.932Z,50.93
2018-03-01T04:09:36.472Z,51.47
2018-03-01T04:12:04.025Z,51.42
2018-03-01T04:14:31.563Z,51.47
2018-03-01T04:16:59.127Z,50.71
2018-03-01T04:19:26.673Z,51.55
2018-03-01T04:21:54.250Z,51.36
2018-03-01T04:24:21.779Z,51.37
2018-03-01T04:26:49.308Z,51.22
2018-03-01T04:29:16.863Z,51.00
2018-03-01T04:31:44.384Z,52.09
2018-03-01T04:34:11.959Z,51.61
2018-03-01T04:36:39.476Z,51.09
2018-03-01T04:39:07.034Z,51.60
2018-03-01T04:41:34.556Z,51.30
2018-03-01T04:44:02.132Z,51.34
2018-03-01T04:46:29.658Z,51.75
2018-03-01T04:48:57.190Z,50.67
2018-03-01T04:51:24.751Z,50.94
2018-03-01T04:53:52.280Z,50.85
2018-03-01T04:56:19.845Z,50.70
2018-03-01T04:58:47.366Z,51.61
2018-03-01T05:01:14.921Z,51.07
2018-03-01T05:03:43.317Z,51.43
2018-03-01T05:06:10.894Z,50.79
2018-03-01T05:08:38.428Z,51.17
2018-03-01T05:11:05.972Z,51.31
2018-03-01T05:13:33.536Z,50.57
2018-03-01T05:16:01.059Z,51.17
2018-03-01T05:18:28.636Z,50.81
2018-03-01T05:20:56.167Z,51.71
2018-03-01T05:23:23.744Z,51.52
2018-03-01T05:25:51.278Z,51.15
2018-03-01T05:28:18.854Z,51.37
2018-03-01T05:30:46.394Z,51.11
2018-03-01T05:33:13.947Z,51.50
2018-03-01T05:35:41.523Z,51.95
2018-03-01T05:38:09.052Z,51.62
2018-03-01T05:40:36.608Z,51.10
2018-03-01T05:43:04.138Z,51.91
2018-03-01T05:45:31.710Z,51.02
2018-03-01T05:47:59.241Z,51.60
2018-03-01T05:50:26.817Z,51.09
2018-03-01T05:52:54.346Z,51.36
2018-03-01T05:55:21.910Z,51.76
2018-03-01T05:57:49.434Z,51.67
2018-03-01T06:00:17.022Z,52.06
2018-03-01T06:02:44.595Z,52.20
2018-03-01T06:05:12.144Z,51.98
2018-03-01T06:07:39.729Z,51.99
2018-03-01T06:10:07.383Z,51.35
2018-03-01T06:12:34.956Z,51.58
2018-03-01T06:15:02.633Z,51.54
2018-03-01T06:17:30.236Z,51.90
2018-03-01T06:20:00.660Z,51.17
2018-03-01T06:22:31.182Z,51.66
2018-03-01T06:24:59.012Z,51.62
2018-03-01T06:27:26.548Z,51.23
2018-03-01T06:29:54.099Z,51.37
2018-03-01T06:32:21.663Z,51.62
2018-03-01T06:34:49.262Z,50.89
2018-03-01T06:37:16.791Z,50.54
2018-03-01T06:39:44.349Z,50.69
2018-03-01T06:42:11.911Z,50.83
2018-03-01T06:44:39.514Z,51.24
2018-03-01T06:47:07.083Z,51.32
2018-03-01T06:49:34.650Z,51.36
2018-03-01T06:52:02.204Z,51.49
2018-03-01T06:54:29.753Z,51.48
2018-03-01T06:56:57.366Z,50.59
2018-03-01T06:59:24.904Z,51.73
2018-03-01T07:01:52.482Z,51.04
2018-03-01T07:04:20.028Z,50.56
2018-03-01T07:06:47.608Z,50.46
2018-03-01T07:09:15.135Z,51.54
2018-03-01T07:11:42.697Z,51.22
2018-03-01T07:14:10.252Z,50.86
2018-03-01T07:16:37.792Z,50.82
2018-03-01T07:19:05.347Z,50.64
2018-03-01T07:21:32.895Z,50.65
2018-03-01T07:24:00.464Z,50.78
2018-03-01T07:26:28.746Z,50.64
2018-03-01T07:28:56.308Z,50.47
2018-03-01T07:31:23.837Z,50.63
2018-03-01T07:33:51.358Z,50.31
2018-03-01T07:36:18.903Z,50.40
2018-03-01T07:38:47.463Z,50.27
2018-03-01T07:41:15.028Z,50.40
2018-03-01T07:43:42.591Z,49.92
2018-03-01T07:46:10.172Z,49.71
2018-03-01T07:48:37.716Z,50.05
2018-03-01T07:51:05.344Z,49.83
2018-03-01T07:53:32.875Z,49.85
2018-03-01T07:56:00.448Z,49.79
2018-03-01T07:58:27.983Z,49.54
2018-03-01T08:00:55.504Z,49.12
2018-03-01T08:03:23.102Z,49.72
2018-03-01T08:05:50.614Z,49.61
2018-03-01T08:08:18.191Z,49.17
2018-03-01T08:10:45.712Z,49.52
2018-03-01T08:13:15.838Z,50.04
2018-03-01T08:15:43.550Z,49.22
2018-03-01T08:18:11.123Z,49.40
2018-03-01T08:20:38.648Z,48.92
2018-03-01T08:23:06.179Z,48.85
2018-03-01T08:25:33.727Z,48.96
2018-03-01T08:28:01.244Z,48.43
2018-03-01T08:30:28.791Z,49.26
2018-03-01T08:32:56.337Z,48.77
2018-03-01T08:35:23.907Z,48.27
2018-03-01T08:37:51.435Z,48.36
2018-03-01T08:40:18.994Z,48.05
2018-03-01T08:42:47.516Z,48.06
2018-03-01T08:45:15.047Z,48.10
2018-03-01T08:47:42.596Z,48.10
2018-03-01T08:50:10.128Z,47.52
2018-03-01T08:52:37.698Z,48.29
2018-03-01T08:55:05.263Z,47.26
2018-03-01T08:57:32.851Z,47.03
2018-03-01T09:00:00.385Z,47.33
2018-03-01T09:02:27.917Z,47.09
2018-03-01T09:04:55.669Z,47.34
2018-03-01T09:07:23.196Z,47.09
2018-03-01T09:09:50.746Z,47.22
2018-03-01T09:12:18.268Z,46.69
2018-03-01T09:14:45.820Z,47.26
2018-03-01T09:17:13.352Z,46.66
2018-03-01T09:19:40.915Z,46.70
2018-03-01T09:22:08.468Z,46.68
2018-03-01T09:24:36.054Z,46.21
2018-03-01T09:27:03.610Z,46.27
2018-03-01T09:29:31.140Z,46.37
2018-03-01T09:31:58.695Z,46.31
2018-03-01T09:34:26.223Z,46.27
2018-03-01T09:36:55.938Z,45.88
2018-03-01T09:39:23.492Z,46.10
2018-03-01T09:41:51.025Z,46.00
2018-03-01T09:44:18.591Z,45.81
2018-03-01T09:46:46.136Z,45.96
2018-03-01T09:49:13.780Z,45.52
2018-03-01T09:51:41.305Z,46.11
2018-03-01T09:54:08.884Z,45.72
2018-03-01T09:56:36.455Z,45.78
2018-03-01T09:59:03.979Z,45.45
2018-03-01T10:01:31.681Z,45.47
2018-03-01T10:03:59.216Z,45.28
2018-03-01T10:06:27.414Z,45.12
2018-03-01T10:08:54.973Z,44.63
2018-03-01T10:11:22.580Z,45.04
2018-03-01T10:13:50.116Z,44.17
2018-03-01T10:16:17.900Z,44.04
2018-03-01T10:18:45.488Z,43.82
2018-03-01T10:21:13.022Z,43.44
2018-03-01T10:23:40.632Z,43.04
2018-03-01T10:26:08.154Z,43.35
2018-03-01T10:28:38.668Z,43.34
2018-03-01T10:31:06.196Z,43.35
2018-03-01T10:33:39.332Z,42.75
2018-03-01T10:36:06.877Z,42.83
2018-03-01T10:38:34.420Z,42.80
2018-03-01T10:41:02.027Z,42.68
2018-03-01T10:43:29.560Z,42.21
2018-03-01T10:45:57.125Z,42.06
2018-03-01T10:48:24.659Z,42.18
2018-03-01T10:50:52.241Z,42.06
2018-03-01T10:53:19.785Z,42.26
2018-03-01T10:55:47.348Z,41.89
2018-03-01T10:58:14.924Z,41.36
2018-03-01T11:00:44.197Z,41.22
2018-03-01T11:03:11.756Z,41.94
2018-03-01T11:05:39.298Z,41.53
2018-03-01T11:08:06.900Z,41.35
2018-03-01T11:10:34.510Z,41.30
2018-03-01T11:13:02.065Z,41.38
2018-03-01T11:15:29.635Z,41.45
2018-03-01T11:17:57.163Z,41.33
2018-03-01T11:20:24.731Z,41.50
2018-03-01T11:22:52.259Z,41.10
2018-03-01T11:25:20.057Z,41.38
2018-03-01T11:27:47.726Z,40.86
2018-03-01T11:30:15.347Z,41.09
2018-03-01T11:32:42.896Z,40.98
2018-03-01T11:35:10.449Z,41.18
2018-03-01T11:37:38.016Z,41.13
2018-03-01T11:40:05.531Z,40.65
2018-03-01T11:42:33.108Z,40.58
2018-03-01T11:45:00.830Z,40.51
2018-03-01T11:47:28.391Z,40.52
2018-03-01T11:49:55.912Z,40.95
2018-03-01T11:52:23.495Z,40.17
2018-03-01T11:54:51.031Z,40.66
2018-03-01T11:57:23.504Z,40.10
2018-03-01T11:59:51.015Z,40.05
2018-03-01T12:02:19.551Z,40.32
2018-03-01T12:04:47.105Z,40.22
2018-03-01T12:07:14.661Z,40.21
2018-03-01T12:09:42.215Z,39.90
2018-03-01T12:12:09.764Z,39.61
2018-03-01T12:14:37.432Z,38.78
2018-03-01T12:17:05.052Z,39.15
2018-03-01T12:19:32.614Z,39.20
2018-03-01T12:22:00.182Z,39.41
2018-03-01T12:24:27.727Z,38.90
2018-03-01T12:26:55.268Z,38.79
2018-03-01T12:29:22.812Z,39.41
2018-03-01T12:31:50.482Z,39.11
2018-03-01T12:34:17.999Z,39.24
2018-03-01T12:36:47.021Z,38.88
2018-03-01T12:39:14.619Z,39.06
2018-03-01T12:41:42.187Z,38.52
2018-03-01T12:44:09.713Z,38.45
2018-03-01T12:46:37.297Z,38.35
2018-03-01T12:49:04.834Z,38.49
2018-03-01T12:51:32.369Z,38.34
2018-03-01T12:53:59.942Z,38.50
2018-03-01T12:56:27.488Z,38.46
2018-03-01T12:58:55.057Z,38.28
2018-03-01T13:01:22.601Z,38.30
2018-03-01T13:03:50.169Z,38.08
2018-03-01T13:06:18.917Z,37.89
2018-03-01T13:08:46.490Z,37.88
2018-03-01T13:11:14.019Z,38.23
2018-03-01T13:13:41.533Z,38.08
2018-03-01T13:16:09.092Z,38.14
2018-03-01T13:18:36.680Z,38.50
2018-03-01T13:21:07.808Z,37.79
2018-03-01T13:23:35.498Z,37.92
2018-03-01T13:26:03.057Z,38.29
2018-03-01T13:28:31.928Z,37.61
2018-03-01T13:31:10.317Z,37.80
2018-03-01T13:36:25.336Z,37.21
2018-03-01T13:38:59.940Z,37.63
2018-03-01T13:41:35.625Z,37.66
2018-03-01T13:44:09.176Z,37.13
2018-03-01T13:46:42.527Z,37.72
2018-03-01T13:49:14.877Z,37.72
2018-03-01T13:51:53.133Z,37.11
2018-03-01T13:54:27.849Z,37.02
2018-03-01T13:56:59.554Z,36.86
2018-03-01T13:59:32.211Z,37.41
2018-03-01T14:02:06.902Z,37.29
2018-03-01T14:04:42.188Z,36.85
2018-03-01T14:10:20.668Z,36.81
2018-03-01T14:12:57.181Z,36.47
2018-03-01T14:15:29.661Z,36.73
2018-03-01T14:18:08.111Z,36.39
2018-03-01T14:20:46.993Z,36.63
2018-03-01T14:26:41.329Z,36.39
2018-03-01T14:29:17.277Z,36.72
2018-03-01T14:31:52.391Z,36.68
2018-03-01T14:34:26.543Z,36.64
2018-03-01T14:36:59.741Z,36.31
2018-03-01T14:39:33.834Z,36.28
2018-03-01T14:42:07.654Z,36.25
2018-03-01T14:44:42.721Z,35.60
2018-03-01T14:47:15.278Z,35.59
2018-03-01T14:49:47.754Z,35.22
2018-03-01T14:52:19.674Z,35.50
2018-03-01T14:54:47.430Z,35.50
2018-03-01T14:57:15.831Z,35.43
2018-03-01T14:59:43.693Z,35.15
2018-03-01T15:02:11.519Z,35.65
2018-03-01T15:04:39.112Z,36.20
2018-03-01T15:07:06.879Z,36.60
2018-03-01T15:09:34.448Z,35.93
2018-03-01T15:12:01.976Z,35.86
2018-03-01T15:14:29.495Z,36.32
2018-03-01T15:16:57.064Z,36.20
2018-03-01T15:19:24.595Z,36.09
2018-03-01T15:21:52.743Z,36.03
2018-03-01T15:24:20.263Z,36.69
2018-03-01T15:26:47.849Z,36.19
2018-03-01T15:29:15.373Z,35.64
2018-03-01T15:31:42.945Z,35.33
2018-03-01T15:34:10.474Z,34.88
2018-03-01T15:36:38.054Z,34.60
2018-03-01T15:39:05.573Z,34.49
2018-03-01T15:41:33.107Z,34.32
2018-03-01T15:44:00.675Z,34.11
2018-03-01T15:46:28.210Z,34.58
2018-03-01T15:48:55.764Z,34.90
2018-03-01T15:51:23.378Z,35.11
2018-03-01T15:53:50.936Z,35.20
2018-03-01T15:56:18.548Z,35.56
2018-03-01T15:58:47.361Z,35.58
2018-03-01T16:01:15.415Z,35.77
2018-03-01T16:03:43.024Z,35.71
2018-03-01T16:06:10.577Z,35.70
2018-03-01T16:08:38.149Z,36.03
2018-03-01T16:11:05.687Z,36.54
2018-03-01T16:13:33.316Z,36.46
2018-03-01T16:16:00.836Z,36.57
2018-03-01T16:18:28.390Z,36.31
2018-03-01T16:20:55.915Z,36.15
2018-03-01T16:23:23.486Z,36.51
2018-03-01T16:25:51.352Z,36.94
2018-03-01T16:28:20.489Z,37.29
2018-03-01T16:30:49.251Z,36.71
2018-03-01T16:33:16.898Z,36.93
2018-03-01T16:35:44.427Z,37.10
2018-03-01T16:38:11.989Z,37.09
2018-03-01T16:40:39.510Z,36.65
2018-03-01T16:43:08.726Z,36.19
2018-03-01T16:45:38.418Z,36.80
2018-03-01T16:48:05.942Z,36.72
2018-03-01T16:50:33.497Z,36.94
2018-03-01T16:53:01.024Z,36.98
2018-03-01T16:55:28.591Z,37.23
2018-03-01T16:57:56.109Z,36.68
2018-03-01T17:00:23.680Z,37.00
2018-03-01T17:02:51.197Z,37.06
2018-03-01T17:05:18.888Z,36.74
2018-03-01T17:07:46.404Z,36.74
2018-03-01T17:10:13.923Z,37.06
2018-03-01T17:12:41.484Z,36.63
2018-03-01T17:15:09.008Z,36.85
2018-03-01T17:17:36.586Z,36.75
2018-03-01T17:20:04.142Z,37.00
2018-03-01T17:22:31.705Z,36.83
2018-03-01T17:24:59.296Z,36.76
2018-03-01T17:27:26.852Z,36.96
2018-03-01T17:29:54.396Z,36.95
2018-03-01T17:32:21.932Z,37.12
2018-03-01T17:34:49.483Z,37.13
2018-03-01T17:37:17.008Z,36.88
2018-03-01T17:39:44.556Z,36.71
2018-03-01T17:42:12.086Z,36.67
2018-03-01T17:44:39.637Z,36.54
2018-03-01T17:47:07.162Z,36.74
2018-03-01T17:49:34.722Z,36.72
2018-03-01T17:52:02.252Z,36.64
2018-03-01T17:54:29.824Z,36.36
2018-03-01T17:56:57.368Z,36.87
2018-03-01T17:59:24.933Z,36.46
2018-03-01T18:01:52.484Z,36.73
2018-03-01T18:04:20.050Z,36.64
2018-03-01T18:06:48.326Z,36.46
2018-03-01T18:09:15.881Z,36.53
2018-03-01T18:11:43.400Z,36.61
2018-03-01T18:14:10.945Z,36.72
2018-03-01T18:16:38.467Z,36.64
2018-03-01T18:19:06.449Z,36.36
2018-03-01T18:21:34.206Z,36.52
2018-03-01T18:24:01.773Z,36.56
2018-03-01T18:26:29.330Z,36.40
2018-03-01T18:28:56.888Z,36.46
2018-03-01T18:31:24.400Z,36.55
2018-03-01T18:33:52.720Z,36.58
2018-03-01T18:36:20.596Z,36.71
2018-03-01T18:38:48.152Z,37.06
2018-03-01T18:41:15.685Z,36.32
2018-03-01T18:43:43.439Z,36.34
2018-03-01T18:46:11.273Z,36.18
2018-03-01T18:48:38.927Z,36.52
2018-03-01T18:51:06.485Z,36.06
2018-03-01T18:53:34.025Z,36.82
2018-03-01T18:56:01.954Z,36.62
2018-03-01T18:58:29.486Z,36.56
2018-03-01T19:00:57.275Z,36.58
2018-03-01T19:03:24.813Z,36.83
2018-03-01T19:05:52.388Z,36.61
2018-03-01T19:08:19.977Z,36.81
2018-03-01T19:10:47.548Z,36.68
2018-03-01T19:13:15.121Z,36.90
2018-03-01T19:15:42.684Z,37.03
2018-03-01T19:18:10.315Z,36.85
2018-03-01T19:20:37.862Z,36.65
2018-03-01T19:23:05.536Z,36.83
2018-03-01T19:25:33.097Z,36.71
2018-03-01T19:28:00.631Z,36.54
2018-03-01T19:30:28.189Z,36.47
2018-03-01T19:32:56.167Z,36.71
2018-03-01T19:35:23.820Z,37.17
2018-03-01T19:37:51.344Z,37.15
2018-03-01T19:40:21.025Z,37.28
2018-03-01T19:42:48.672Z,37.86
2018-03-01T19:45:16.886Z,37.53
2018-03-01T19:47:44.475Z,37.31
2018-03-01T19:50:12.160Z,37.60
2018-03-01T19:52:39.914Z,37.45
2018-03-01T19:55:07.920Z,37.83
2018-03-01T19:57:35.436Z,38.24
2018-03-01T20:00:02.988Z,38.24
2018-03-01T20:02:30.511Z,37.58
2018-03-01T20:04:58.068Z,37.58
2018-03-01T20:07:28.964Z,37.62
2018-03-01T20:09:56.523Z,37.67
2018-03-01T20:12:24.057Z,37.93
2018-03-01T20:14:51.628Z,38.09
2018-03-01T20:17:19.142Z,38.08
2018-03-01T20:19:46.703Z,38.02
2018-03-01T20:22:14.261Z,38.14
2018-03-01T20:24:41.886Z,38.06
2018-03-01T20:27:09.446Z,38.40
2018-03-01T20:29:37.469Z,38.18
2018-03-01T20:32:06.732Z,38.60
2018-03-01T20:34:34.249Z,38.27
2018-03-01T20:37:01.807Z,38.53
2018-03-01T20:39:29.493Z,38.50
2018-03-01T20:41:57.261Z,38.74
2018-03-01T20:44:24.933Z,38.55
2018-03-01T20:46:52.487Z,38.59
2018-03-01T20:49:20.020Z,38.55
2018-03-01T20:51:47.694Z,38.62
2018-03-01T20:54:15.211Z,38.66
2018-03-01T20:56:42.813Z,38.51
2018-03-01T20:59:10.346Z,38.68
2018-03-01T21:01:37.907Z,38.60
2018-03-01T21:04:05.466Z,38.76
2018-03-01T21:06:33.152Z,38.84
2018-03-01T21:09:00.729Z,38.84
2018-03-01T21:11:28.260Z,38.91
2018-03-01T21:13:55.913Z,38.51
2018-03-01T21:16:24.400Z,38.78
2018-03-01T21:18:51.984Z,38.83
2018-03-01T21:21:19.525Z,39.38
2018-03-01T21:23:47.109Z,39.25
2018-03-01T21:26:14.739Z,39.24
2018-03-01T21:28:42.298Z,39.06
2018-03-01T21:31:09.868Z,39.38
2018-03-01T21:33:37.427Z,39.60
2018-03-01T21:36:04.991Z,39.96
2018-03-01T21:38:32.528Z,39.81
2018-03-01T21:41:00.124Z,39.67
2018-03-01T21:43:27.654Z,40.02
2018-03-01T21:45:55.244Z,39.70
2018-03-01T21:48:22.759Z,39.40
2018-03-01T21:50:50.292Z,39.57
2018-03-01T21:53:17.852Z,40.24
2018-03-01T21:55:45.366Z,39.87
2018-03-01T21:58:12.969Z,40.05
2018-03-01T22:00:40.491Z,40.25
2018-03-01T22:03:08.129Z,40.63
2018-03-01T22:05:35.658Z,40.57
2018-03-01T22:08:03.214Z,40.29
2018-03-01T22:10:30.736Z,40.21
2018-03-01T22:12:58.315Z,40.29
2018-03-01T22:15:25.835Z,40.66
2018-03-01T22:17:53.376Z,40.51
2018-03-01T22:20:20.920Z,40.17
2018-03-01T22:22:48.439Z,40.34
2018-03-01T22:25:15.986Z,40.27
2018-03-01T22:27:43.519Z,40.28
2018-03-01T22:30:11.072Z,40.22
2018-03-01T22:32:38.587Z,40.24
2018-03-01T22:35:06.154Z,40.37
2018-03-01T22:37:33.684Z,40.81
2018-03-01T22:40:02.420Z,40.33
2018-03-01T22:42:30.064Z,40.30
2018-03-01T22:44:57.592Z,40.64
2018-03-01T22:47:25.215Z,40.53
2018-03-01T22:49:52.736Z,40.74
2018-03-01T22:52:21.303Z,40.84
2018-03-01T22:54:48.833Z,40.68
2018-03-01T22:57:18.365Z,40.78
2018-03-01T22:59:45.874Z,41.28
2018-03-01T23:02:13.450Z,41.08
2018-03-01T23:04:40.967Z,41.10
2018-03-01T23:07:08.492Z,41.10
2018-03-01T23:09:36.037Z,41.55
2018-03-01T23:12:04.705Z,41.67
2018-03-01T23:14:32.351Z,41.32
2018-03-01T23:16:59.891Z,40.83
2018-03-01T23:19:27.441Z,41.34
2018-03-01T23:21:55.004Z,41.51
2018-03-01T23:24:22.605Z,41.38
2018-03-01T23:26:50.131Z,41.37
2018-03-01T23:29:17.706Z,41.37
2018-03-01T23:31:45.239Z,41.45
2018-03-01T23:34:12.775Z,41.71
2018-03-01T23:36:40.350Z,41.79
2018-03-01T23:39:07.923Z,41.76
2018-03-01T23:41:35.475Z,41.56
2018-03-01T23:44:03.016Z,41.87
2018-03-01T23:46:30.572Z,42.24
2018-03-01T23:48:58.103Z,41.72
2018-03-01T23:51:25.704Z,42.12
2018-03-01T23:53:53.253Z,42.17
2018-03-01T23:56:20.831Z,42.22
2018-03-01T23:58:48.359Z,41.79
